首页
METAR-TAF:

METAR-TAF

机场 :

維珍尼亞海灘, 弗吉尼亚州, 美国

纬度: 36-49-16N, 经度: 076-01-42W, 海拔: 6米

当前天气观测

该预报发布于31分钟前的03:56 UTC
风速20节,风向,有时为27节阵风
温度 19°C
湿度 49%
气压 1012 hPa
能見度: 16.1公里
阴天层高于6000英尺

METAR: KNTU 170356Z 35020G27KT 10SM OVC060 19/08 A2989 RMK AO2 PK WND 35032/0312 SLP123 T01890078

时间: 00:27 (04:27 UTC)

预报

预报有效从16日的 23点(UTC)到 17日的 23点(UTC)
风速15节,风向西北,有时为25节阵风
能见度10公里或以上
少量云层高于10000英尺
散云层高于13000英尺
阴天层高于15000英尺
附近有阵雨
短暂存在
从 16日的 23点(UTC)到 17日的 04点(UTC)
能見度: 8000
散云层高于2000英尺
多云层高于4000英尺
阴天层高于10000英尺
阵雨
成为
从 17日的 05点(UTC)到 17日的 08点(UTC)
风速15节,风向西北
能见度10公里或以上
少量云层高于8000英尺

TAF: KNTU 1623/1723 32015G25KT 9999 VCSH FEW100 SCT130 OVC150 QNH2968INS TEMPO 1623/1704 8000 SHRA SCT020 BKN040 OVC100 QNH2972INS BECMG 1705/1708 32015KT 9999 NSW FEW080 QNH2978INS T18/1700Z T14/1712Z FN00231

超过4000个机场的气象观测和天气预报(METAR&TAF报告)。

可查询的气象台以黄色和红色小点在地图上表示。

将鼠标移到小点上方,可查看气象台名称。

然后点击查看天气观测和预报。

如需切换地图:点击带黑十字的绿色按钮放大地图;点击带横线的绿色按钮缩小地图;或者点击绿色箭头查看邻近地区的地图。


METAR-TAF: